Time;durP1;ratioP1;P1;durP2;ratioP2;P2;SDS_P1;SDS_P2;PMS_P1;PMS_P2;Temp;Humidity;BMP_temperature;BMP_pressure;BME280_temperature;BME280_humidity;BME280_pressure;Samples;Min_cycle;Max_cycle;Signal;HPM_P1;HPM_P2
2022/01/23 00:01:09;;;;;;;35.50;24.20;;;;;;;10.50;63.13;103439.72;5054284;28;20082;-65
2022/01/23 00:03:45;;;;;;;41.45;24.20;;;;;;;10.48;62.96;103437.06;5053162;28;20422;-65
2022/01/23 00:06:12;;;;;;;40.58;24.40;;;;;;;10.48;62.97;103436.19;5054119;28;20513;-66
2022/01/23 00:08:43;;;;;;;39.58;25.48;;;;;;;10.47;62.93;103432.63;5054292;28;20051;-67
2022/01/23 00:11:10;;;;;;;38.85;23.90;;;;;;;10.47;62.92;103431.72;5054267;28;20483;-66
2022/01/23 00:19:13;;;;;;;35.83;22.98;;;;;;;10.41;63.05;103430.09;5053626;28;20477;-66
2022/01/23 00:21:41;;;;;;;39.88;25.30;;;;;;;10.41;63.20;103434.59;5054132;28;20056;-65
2022/01/23 00:32:09;;;;;;;37.95;24.25;;;;;;;10.38;63.02;103424.78;5053768;28;20041;-65
2022/01/23 00:34:38;;;;;;;35.22;23.45;;;;;;;10.36;63.08;103423.97;5053783;28;20037;-65
2022/01/23 00:37:05;;;;;;;38.20;23.98;;;;;;;10.35;63.09;103434.75;5053461;28;20078;-66
2022/01/23 00:39:31;;;;;;;42.38;25.25;;;;;;;10.35;63.05;103440.13;5052011;28;20545;-66
2022/01/23 00:41:58;;;;;;;36.80;24.05;;;;;;;10.35;63.12;103441.00;5053715;28;20076;-66
2022/01/23 00:44:29;;;;;;;39.08;24.48;;;;;;;10.34;63.03;103438.34;5052345;28;20478;-65
2022/01/23 00:46:55;;;;;;;39.33;25.08;;;;;;;10.34;63.21;103435.66;5053091;28;20080;-66
2022/01/23 00:49:25;;;;;;;40.30;24.77;;;;;;;10.35;63.07;103437.44;5051906;28;20047;-65
2022/01/23 00:51:54;;;;;;;38.88;25.08;;;;;;;10.36;63.02;103428.44;5053218;28;20056;-66
2022/01/23 00:54:28;;;;;;;37.70;23.67;;;;;;;10.39;63.07;103420.31;5053482;28;20033;-65
2022/01/23 00:56:55;;;;;;;38.35;24.30;;;;;;;10.38;63.05;103421.22;5052085;28;20429;-65
2022/01/23 00:59:21;;;;;;;37.47;24.60;;;;;;;10.39;63.07;103420.31;5052742;28;20552;-65
2022/01/23 01:01:49;;;;;;;34.28;23.67;;;;;;;10.38;63.02;103418.53;5053184;28;20487;-65
2022/01/23 01:04:18;;;;;;;34.17;23.73;;;;;;;10.39;62.99;103426.56;5053359;28;20036;-65
2022/01/23 01:06:45;;;;;;;37.05;23.98;;;;;;;10.38;63.09;103421.22;5051407;28;20083;-66
2022/01/23 01:09:13;;;;;;;38.08;23.60;;;;;;;10.38;62.85;103440.03;5052748;28;20051;-65
2022/01/23 01:14:59;;;;;;;41.90;23.23;;;;;;;10.40;62.85;103433.72;5051754;28;20045;-65
2022/01/23 01:30:07;;;;;;;36.80;24.60;;;;;;;10.41;63.20;103434.59;5051446;28;20139;-66
2022/01/23 01:33:54;;;;;;;40.17;24.17;;;;;;;10.34;62.95;103424.94;5051551;28;20132;-65
2022/01/23 01:36:46;;;;;;;37.75;23.45;;;;;;;10.31;62.75;103436.63;5051780;28;20118;-65
2022/01/23 01:39:22;;;;;;;33.70;22.10;;;;;;;10.29;62.84;103438.50;5051338;28;20044;-65
2022/01/23 01:41:49;;;;;;;;;;;;;;;10.23;62.84;103438.66;5053616;28;20037;-65
2022/01/23 01:44:21;;;;;;;34.75;21.67;;;;;;;10.26;62.75;103440.38;5051456;28;19921;-65
2022/01/23 01:46:57;;;;;;;35.05;21.67;;;;;;;10.24;62.90;103435.06;5077989;28;20376;-65
2022/01/23 01:49:32;;;;;;;34.10;22.02;;;;;;;10.24;63.15;103439.53;5057498;28;20041;-66
2022/01/23 01:52:02;;;;;;;32.30;21.40;;;;;;;10.21;62.90;103451.25;5047867;28;20033;-64
2022/01/23 01:54:32;;;;;;;35.72;23.42;;;;;;;10.21;63.06;103445.88;5064816;28;20037;-65
2022/01/23 01:57:09;;;;;;;37.72;21.75;;;;;;;10.21;63.00;103443.19;5053140;28;20487;-65
2022/01/23 02:00:14;;;;;;;35.58;22.70;;;;;;;10.23;62.93;103437.78;5051314;28;20056;-65
2022/01/23 02:08:22;;;;;;;33.75;21.48;;;;;;;10.24;62.98;103423.44;5040819;28;20132;-65
2022/01/23 02:10:54;;;;;;;36.38;21.70;;;;;;;10.24;62.92;103412.69;5048465;28;20091;-65
2022/01/23 02:55:14;;;;;;;34.70;23.05;;;;;;;10.12;62.87;103401.34;5055099;28;20128;-65
2022/01/23 03:00:16;;;;;;;35.38;22.83;;;;;;;10.10;63.03;103395.13;5054002;28;20041;-65
2022/01/23 03:03:10;;;;;;;36.70;23.15;;;;;;;10.11;63.18;103393.34;5055719;28;20095;-66
2022/01/23 03:28:27;;;;;;;35.42;22.83;;;;;;;9.85;63.24;103397.63;5054273;28;20147;-65
2022/01/23 03:31:21;;;;;;;32.80;21.63;;;;;;;9.88;63.25;103396.66;5055777;28;20037;-65
2022/01/23 03:33:53;;;;;;;36.20;22.95;;;;;;;9.87;63.19;103395.78;5055700;28;20490;-64
2022/01/23 03:36:20;;;;;;;39.88;22.90;;;;;;;9.87;63.26;103408.31;5055313;28;20057;-64
2022/01/23 03:38:46;;;;;;;39.03;23.55;;;;;;;9.85;63.28;103403.00;5055470;28;20422;-65
2022/01/23 03:41:14;;;;;;;37.80;23.58;;;;;;;9.85;63.21;103412.84;5054290;28;20073;-65
2022/01/23 03:43:44;;;;;;;35.40;22.60;;;;;;;9.84;63.43;103429.88;5055641;28;20439;-65
2022/01/23 03:51:22;;;;;;;35.40;23.00;;;;;;;9.82;63.38;103423.66;5054044;28;20450;-65
2022/01/23 03:53:50;;;;;;;35.00;21.48;;;;;;;9.82;63.20;103418.31;5054940;28;20179;-65
2022/01/23 03:56:20;;;;;;;41.40;22.38;;;;;;;9.81;63.39;103421.91;5053528;28;20037;-65
2022/01/23 03:58:47;;;;;;;38.47;22.73;;;;;;;9.83;63.38;103437.06;5053675;28;20044;-65
2022/01/23 04:01:19;;;;;;;36.15;23.02;;;;;;;9.84;63.58;103440.63;5053842;28;20037;-65
2022/01/23 04:03:52;;;;;;;36.97;23.25;;;;;;;9.85;63.33;103440.56;5053278;28;20064;-65
2022/01/23 04:06:19;;;;;;;37.75;22.50;;;;;;;9.88;63.46;103432.44;5053426;28;20457;-65
2022/01/23 04:08:46;;;;;;;36.92;21.88;;;;;;;9.89;63.45;103433.31;5053470;28;20486;-65
2022/01/23 04:11:13;;;;;;;38.58;23.58;;;;;;;9.91;63.19;103438.66;5055074;28;20110;-66
2022/01/23 04:13:49;;;;;;;38.90;23.10;;;;;;;9.91;63.46;103444.00;5054874;28;20120;-65
2022/01/23 04:32:22;;;;;;;33.00;20.98;;;;;;;9.92;63.27;103424.31;5054422;28;20404;-65
2022/01/23 04:46:43;;;;;;;;;;;;;;;9.83;63.27;103426.31;5052784;28;20045;-65
2022/01/23 05:00:06;;;;;;;36.80;21.73;;;;;;;9.81;63.45;103430.84;5052014;28;20048;-65
2022/01/23 05:05:59;;;;;;;35.15;21.17;;;;;;;9.84;63.41;103436.13;5050827;28;20053;-66
2022/01/23 05:08:44;;;;;;;34.63;22.42;;;;;;;9.84;63.29;103429.88;5051905;28;20056;-65
2022/01/23 05:11:30;;;;;;;35.20;21.05;;;;;;;9.82;63.31;103432.59;5054593;28;20052;-65
2022/01/23 05:14:11;;;;;;;38.22;21.88;;;;;;;9.79;63.15;103429.13;5053410;28;20033;-66
2022/01/23 05:16:38;;;;;;;33.33;20.65;;;;;;;9.78;63.40;103430.03;5050926;28;20485;-65
2022/01/23 05:19:06;;;;;;;33.42;20.90;;;;;;;9.78;63.36;103438.09;5050727;28;20041;-66
2022/01/23 05:24:09;;;;;;;32.40;20.15;;;;;;;9.80;63.45;103423.72;5051890;28;20494;-65
2022/01/23 05:26:42;;;;;;;34.75;21.13;;;;;;;9.81;63.47;103428.16;5082511;28;20052;-66
2022/01/23 05:29:11;;;;;;;31.30;21.40;;;;;;;9.84;63.45;103427.19;5050870;28;20041;-65
2022/01/23 05:31:38;;;;;;;34.33;21.40;;;;;;;9.85;63.54;103429.84;5052320;28;20098;-65
2022/01/23 05:34:09;;;;;;;44.55;22.17;;;;;;;9.85;63.39;103428.94;5052962;28;20443;-65
2022/01/23 05:36:36;;;;;;;34.88;21.08;;;;;;;9.86;63.35;103434.28;5051076;28;20090;-65
2022/01/23 05:39:02;;;;;;;33.58;21.17;;;;;;;9.87;63.40;103432.47;5050769;28;20083;-66
2022/01/23 05:41:31;;;;;;;35.33;21.23;;;;;;;9.88;63.31;103435.13;5084427;28;20045;-66
2022/01/23 05:43:58;;;;;;;33.65;21.45;;;;;;;9.89;63.49;103433.31;5050482;28;20073;-66
2022/01/23 05:46:25;;;;;;;34.13;21.40;;;;;;;9.89;63.39;103430.63;5051018;28;20045;-65
2022/01/23 05:49:10;;;;;;;36.38;22.73;;;;;;;9.88;63.39;103434.25;5050405;28;20061;-65
2022/01/23 05:51:55;;;;;;;35.50;21.70;;;;;;;9.86;63.23;103426.22;5050518;28;20392;-65
2022/01/23 05:54:41;;;;;;;30.08;19.67;;;;;;;9.85;63.27;103426.28;5052040;28;20525;-66
2022/01/23 05:57:34;;;;;;;31.35;20.95;;;;;;;9.83;63.58;103429.00;5051512;28;20114;-65
2022/01/23 06:00:26;;;;;;;32.33;20.00;;;;;;;9.85;63.36;103428.94;5050833;28;20060;-65
2022/01/23 06:03:03;;;;;;;31.85;20.60;;;;;;;9.83;63.54;103428.13;5052108;28;20052;-66
2022/01/23 06:05:39;;;;;;;37.72;21.52;;;;;;;9.83;63.39;103425.44;5050510;28;20107;-66
2022/01/23 06:08:12;;;;;;;33.92;21.23;;;;;;;9.82;63.23;103432.59;5050119;28;20057;-65
2022/01/23 06:10:56;;;;;;;40.55;22.42;;;;;;;9.82;63.59;103435.28;5050268;28;20037;-64
2022/01/23 06:13:53;;;;;;;32.05;20.15;;;;;;;9.82;63.58;103440.66;5050292;28;20128;-65
2022/01/23 06:16:20;;;;;;;36.00;20.95;;;;;;;9.85;63.29;103445.06;5051892;28;20463;-65
2022/01/23 06:19:07;;;;;;;34.05;21.02;;;;;;;9.85;63.35;103442.38;5050671;28;20045;-64
2022/01/23 06:21:52;;;;;;;33.47;20.48;;;;;;;9.86;63.36;103446.81;5052006;28;20064;-65
2022/01/23 06:24:47;;;;;;;35.20;21.45;;;;;;;9.85;63.37;103447.75;5051398;28;20099;-66
2022/01/23 06:27:28;;;;;;;33.35;21.17;;;;;;;9.85;63.35;103453.09;5051208;28;20049;-65
2022/01/23 06:29:55;;;;;;;31.08;20.48;;;;;;;9.82;63.34;103454.06;5049968;28;20080;-65
2022/01/23 06:32:22;;;;;;;33.55;20.73;;;;;;;9.82;63.29;103448.72;5049876;28;20048;-65
2022/01/23 06:34:48;;;;;;;33.33;20.65;;;;;;;9.82;63.31;103446.03;5051349;28;20463;-65
2022/01/23 06:37:15;;;;;;;32.63;20.38;;;;;;;9.82;63.52;103448.72;5050522;28;20045;-65
2022/01/23 06:39:42;;;;;;;31.65;20.45;;;;;;;9.83;63.54;103447.78;5032008;28;20072;-65
2022/01/23 06:42:11;;;;;;;29.45;19.15;;;;;;;9.85;63.39;103445.06;5033744;28;20045;-66
2022/01/23 06:44:57;;;;;;;33.88;19.73;;;;;;;9.85;63.30;103458.47;5050943;28;20459;-65
2022/01/23 06:47:25;;;;;;;32.40;20.77;;;;;;;9.84;63.32;103452.22;5046716;28;20060;-65
2022/01/23 06:49:52;;;;;;;29.52;19.67;;;;;;;9.84;63.46;103454.91;5042317;28;20042;-66
2022/01/23 06:52:18;;;;;;;29.02;19.58;;;;;;;9.85;63.41;103459.34;5065847;28;20037;-65
2022/01/23 06:55:00;;;;;;;29.95;19.52;;;;;;;9.86;63.51;103452.19;5040414;28;20068;-65
2022/01/23 06:57:26;;;;;;;36.13;20.20;;;;;;;9.87;63.41;103465.56;5062010;28;20601;-65
2022/01/23 06:59:54;;;;;;;29.75;19.58;;;;;;;9.87;63.46;103462.88;5063249;28;20140;-65
2022/01/23 07:02:44;;;;;;;31.08;19.33;;;;;;;9.89;63.22;103470.91;5046652;28;20051;-65
2022/01/23 07:05:31;;;;;;;32.83;21.00;;;;;;;9.89;63.44;103473.59;5078167;28;20094;-65
2022/01/23 07:08:13;;;;;;;32.72;21.38;;;;;;;9.90;63.51;103477.16;5047871;28;20044;-65
2022/01/23 07:10:45;;;;;;;32.83;20.98;;;;;;;9.85;63.10;103478.16;5049392;28;20045;-66
2022/01/23 07:13:39;;;;;;;33.05;20.60;;;;;;;9.80;63.55;103479.19;5048798;28;20052;-65
2022/01/23 07:16:13;;;;;;;30.23;19.70;;;;;;;9.78;63.63;103481.91;5050813;28;20043;-65
2022/01/23 07:19:15;;;;;;;33.55;20.98;;;;;;;9.81;63.46;103489.00;5049486;28;20048;-66
2022/01/23 07:21:49;;;;;;;33.25;21.10;;;;;;;9.83;63.70;103487.16;5048515;28;20053;-65
2022/01/23 07:24:42;;;;;;;31.17;20.65;;;;;;;9.82;63.69;103490.78;5043322;28;20041;-65
2022/01/23 07:27:17;;;;;;;36.15;22.08;;;;;;;9.83;63.54;103493.41;5053096;28;20092;-64
2022/01/23 07:29:44;;;;;;;34.92;20.85;;;;;;;9.84;63.72;103496.97;5051255;28;20053;-64
2022/01/23 07:32:11;;;;;;;34.58;20.88;;;;;;;9.86;63.72;103495.13;5053225;28;20240;-65
2022/01/23 07:34:38;;;;;;;33.63;20.75;;;;;;;9.88;63.82;103499.53;5054985;28;20041;-66
2022/01/23 07:37:07;;;;;;;33.63;21.55;;;;;;;9.90;63.46;103507.56;5053670;28;20072;-65
2022/01/23 07:39:49;;;;;;;30.92;19.85;;;;;;;9.92;63.76;103519.13;5040942;28;20104;-65
2022/01/23 07:42:22;;;;;;;35.05;21.17;;;;;;;9.94;63.61;103524.47;5045097;28;20391;-64
2022/01/23 07:45:00;;;;;;;30.67;19.40;;;;;;;9.93;63.94;103523.59;5061330;28;20068;-63
2022/01/23 07:48:02;;;;;;;30.65;19.10;;;;;;;9.93;63.61;103506.59;5035374;28;20471;-63
2022/01/23 07:50:36;;;;;;;29.67;19.05;;;;;;;9.94;63.48;103516.41;5032749;28;20058;-64
2022/01/23 07:53:21;;;;;;;31.58;19.05;;;;;;;9.93;63.70;103515.53;5032863;28;20050;-64
2022/01/23 07:56:15;;;;;;;31.05;20.08;;;;;;;9.95;63.44;103518.19;5040125;28;20056;-64
2022/01/23 07:59:04;;;;;;;31.52;19.95;;;;;;;9.94;63.70;103519.97;5053353;28;20052;-63
2022/01/23 08:01:51;;;;;;;38.05;20.92;;;;;;;9.94;63.63;103521.78;5052558;28;20095;-64
2022/01/23 08:04:37;;;;;;;35.22;21.33;;;;;;;9.92;63.74;103521.81;5053496;28;20048;-64
2022/01/23 08:07:30;;;;;;;33.55;20.67;;;;;;;9.92;63.57;103526.31;5036212;28;20116;-64
2022/01/23 08:10:21;;;;;;;32.80;20.42;;;;;;;9.90;63.83;103529.03;5052531;28;20068;-63
2022/01/23 08:12:47;;;;;;;34.47;21.55;;;;;;;9.90;63.60;103528.16;5053574;28;20399;-64
2022/01/23 08:15:15;;;;;;;34.88;21.50;;;;;;;9.91;63.84;103533.47;5053248;28;20103;-64
2022/01/23 08:17:42;;;;;;;34.30;21.48;;;;;;;9.92;63.68;103529.88;5053254;28;20061;-64
2022/01/23 08:20:09;;;;;;;34.25;21.10;;;;;;;9.93;63.73;103537.00;5053325;28;20072;-64
2022/01/23 08:22:35;;;;;;;34.45;20.92;;;;;;;9.95;63.89;103537.84;5053163;28;20039;-64
2022/01/23 08:25:03;;;;;;;36.30;20.23;;;;;;;9.95;63.73;103532.47;5053061;28;20557;-64
2022/01/23 08:27:30;;;;;;;33.55;22.20;;;;;;;9.96;63.94;103531.56;5053615;28;20048;-61
2022/01/23 08:29:58;;;;;;;32.95;20.33;;;;;;;9.97;63.76;103538.69;5053436;28;20034;-61
2022/01/23 08:32:25;;;;;;;38.85;20.80;;;;;;;9.98;63.83;103540.44;5051770;28;20491;-62
2022/01/23 08:34:52;;;;;;;33.28;20.73;;;;;;;10.00;63.80;103535.03;5053149;28;20051;-63
2022/01/23 08:37:20;;;;;;;33.13;21.33;;;;;;;10.01;63.74;103543.06;5053038;28;20045;-61
2022/01/23 08:39:46;;;;;;;34.88;21.83;;;;;;;10.03;63.64;103541.22;5053172;28;20565;-63
2022/01/23 08:42:15;;;;;;;38.97;21.70;;;;;;;10.03;63.70;103546.59;5046675;28;20071;-61
2022/01/23 08:44:47;;;;;;;34.20;21.90;;;;;;;10.03;63.89;103543.91;5032787;28;20050;-63
2022/01/23 08:47:14;;;;;;;34.78;21.13;;;;;;;10.04;63.78;103550.16;5051683;28;20048;-62
2022/01/23 08:49:48;;;;;;;35.85;22.88;;;;;;;10.05;63.83;103547.44;5051977;28;20080;-62
2022/01/23 08:52:17;;;;;;;35.20;22.20;;;;;;;10.05;63.64;103551.91;5052994;28;20045;-62
2022/01/23 08:54:51;;;;;;;40.50;23.80;;;;;;;10.03;63.88;103556.44;5051859;28;20055;-62
2022/01/23 08:57:19;;;;;;;39.53;24.00;;;;;;;10.01;63.80;103551.09;5052678;28;20045;-62
2022/01/23 08:59:46;;;;;;;39.67;22.83;;;;;;;9.99;63.96;103549.38;5050935;28;20425;-62
2022/01/23 09:02:13;;;;;;;36.28;22.63;;;;;;;9.96;63.84;103549.47;5051785;28;20104;-61
2022/01/23 09:04:40;;;;;;;38.85;24.08;;;;;;;9.96;64.05;103549.47;5052322;28;20052;-62
2022/01/23 09:07:07;;;;;;;35.60;22.80;;;;;;;9.96;64.08;103550.34;5052179;28;20056;-62
2022/01/23 09:09:37;;;;;;;39.63;23.50;;;;;;;10.00;64.01;103546.66;5037711;28;20115;-62
2022/01/23 09:12:24;;;;;;;35.08;21.13;;;;;;;10.04;64.05;103552.84;5032713;28;20041;-62
2022/01/23 09:14:51;;;;;;;38.25;23.45;;;;;;;10.06;63.85;103551.00;5052124;28;20487;-62
2022/01/23 09:17:17;;;;;;;44.22;25.05;;;;;;;10.05;63.90;103551.91;5050608;28;20448;-62
2022/01/23 09:19:50;;;;;;;38.20;24.80;;;;;;;10.06;64.12;103551.00;5041166;28;20045;-61
2022/01/23 09:22:16;;;;;;;41.40;25.05;;;;;;;10.08;64.16;103550.03;5051947;28;20037;-62
2022/01/23 09:24:44;;;;;;;41.10;24.25;;;;;;;10.11;64.22;103549.94;5041131;28;20059;-62
2022/01/23 09:27:18;;;;;;;41.83;25.58;;;;;;;10.15;64.00;103545.38;5048244;28;20049;-62
2022/01/23 09:29:49;;;;;;;42.15;25.80;;;;;;;10.17;64.37;103549.78;5052017;28;20128;-62
2022/01/23 09:32:20;;;;;;;43.65;26.10;;;;;;;10.18;64.32;103551.56;5052330;28;20091;-63
2022/01/23 09:34:48;;;;;;;43.58;26.25;;;;;;;10.21;64.29;103560.47;5044326;28;20538;-63
2022/01/23 09:37:17;;;;;;;47.22;27.67;;;;;;;10.22;64.28;103554.19;5050301;28;20130;-62
2022/01/23 09:39:46;;;;;;;45.95;26.42;;;;;;;10.24;64.36;103557.72;5041604;28;20055;-64
2022/01/23 09:42:28;;;;;;;45.70;27.27;;;;;;;10.24;64.33;103553.22;5051690;28;20116;-62
2022/01/23 09:45:00;;;;;;;42.95;26.65;;;;;;;10.27;64.41;103560.31;5051876;28;20048;-63
2022/01/23 09:47:27;;;;;;;46.67;27.40;;;;;;;10.30;64.23;103565.63;5051689;28;20049;-63
2022/01/23 09:49:54;;;;;;;45.33;28.17;;;;;;;10.32;64.26;103574.50;5051706;28;20041;-63
2022/01/23 09:52:29;;;;;;;45.60;28.42;;;;;;;10.34;64.19;103568.19;5051449;28;20041;-62
2022/01/23 09:55:00;;;;;;;51.03;29.65;;;;;;;10.35;64.30;103563.69;5051581;28;20499;-63
2022/01/23 09:57:30;;;;;;;47.50;30.45;;;;;;;10.37;64.39;103572.59;5051884;28;20495;-63
2022/01/23 09:59:59;;;;;;;47.75;29.80;;;;;;;10.40;64.17;103567.13;5050393;28;20211;-63
2022/01/23 10:02:28;;;;;;;53.95;32.72;;;;;;;10.40;64.26;103562.66;5051520;28;20045;-62
2022/01/23 10:05:00;;;;;;;48.95;30.15;;;;;;;10.43;64.27;103572.44;5051696;28;20174;-63
2022/01/23 10:07:28;;;;;;;43.75;27.95;;;;;;;10.44;64.34;103572.41;5051789;28;20137;-65
2022/01/23 10:10:07;;;;;;;48.03;30.08;;;;;;;10.47;64.24;103566.06;5051753;28;20550;-66
2022/01/23 10:12:33;;;;;;;46.70;28.77;;;;;;;10.46;64.50;103567.00;5051728;28;20491;-64
2022/01/23 10:15:00;;;;;;;52.78;31.17;;;;;;;10.45;64.20;103574.16;5042424;28;20037;-63
2022/01/23 10:17:26;;;;;;;48.83;31.27;;;;;;;10.45;64.19;103565.22;5049616;28;20443;-62
2022/01/23 10:19:54;;;;;;;52.17;31.98;;;;;;;10.48;64.42;103574.09;5051880;28;20048;-63
2022/01/23 10:22:20;;;;;;;53.05;31.75;;;;;;;10.50;64.49;103579.41;5039704;28;20535;-62
2022/01/23 10:24:50;;;;;;;50.53;32.20;;;;;;;10.53;64.24;103570.41;5031810;28;20447;-65
2022/01/23 10:27:17;;;;;;;56.05;31.77;;;;;;;10.56;64.18;103578.38;5031537;28;20041;-63
2022/01/23 10:29:47;;;;;;;54.42;30.75;;;;;;;10.58;64.26;103571.16;5031433;28;20053;-63
2022/01/23 10:32:20;;;;;;;56.17;30.60;;;;;;;10.61;64.39;103563.88;5048436;28;20051;-62
2022/01/23 10:34:57;;;;;;;65.10;32.58;;;;;;;10.63;64.28;103571.91;5051963;28;20479;-63
2022/01/23 10:37:30;;;;;;;55.65;32.42;;;;;;;10.63;64.25;103571.91;5052000;28;20048;-62
2022/01/23 10:40:06;;;;;;;54.20;31.50;;;;;;;10.62;64.20;103572.81;5052338;28;20083;-62
2022/01/23 10:50:51;;;;;;;52.53;31.98;;;;;;;10.69;64.09;103559.16;5049441;28;20049;-62
2022/01/23 10:53:19;;;;;;;50.40;32.55;;;;;;;10.70;64.33;103570.81;5050650;28;20056;-62
2022/01/23 10:55:47;;;;;;;57.83;32.78;;;;;;;10.70;64.36;103566.31;5050896;28;20057;-64
2022/01/23 10:58:24;;;;;;;49.10;29.25;;;;;;;10.74;64.26;103564.41;5050630;28;20120;-62
2022/01/23 11:00:50;;;;;;;50.25;30.05;;;;;;;10.77;64.08;103561.63;5050785;28;20048;-63
2022/01/23 11:03:23;;;;;;;53.13;31.23;;;;;;;10.77;64.15;103557.16;5050950;28;20070;-62
2022/01/23 11:05:52;;;;;;;50.55;31.38;;;;;;;10.80;64.31;103561.56;5052396;28;20107;-62
2022/01/23 11:08:23;;;;;;;54.95;30.88;;;;;;;10.83;64.26;103556.97;5054253;28;20071;-63
2022/01/23 11:11:00;;;;;;;50.60;30.48;;;;;;;10.85;64.15;103545.28;5054378;28;20473;-63
2022/01/23 11:19:17;;;;;;;51.85;30.73;;;;;;;10.89;64.25;103547.84;5054254;28;20564;-63
2022/01/23 11:21:44;;;;;;;53.75;30.40;;;;;;;10.89;64.00;103545.16;5052939;28;20041;-63
2022/01/23 11:24:20;;;;;;;49.63;29.63;;;;;;;10.92;64.00;103547.75;5054161;28;20064;-63
2022/01/23 11:26:47;;;;;;;59.10;31.00;;;;;;;10.95;64.04;103544.97;5055399;28;20041;-62
2022/01/23 11:29:18;;;;;;;52.53;31.25;;;;;;;10.98;64.08;103544.00;5055830;28;20478;-62
2022/01/23 11:31:45;;;;;;;59.80;38.47;;;;;;;11.00;63.97;103548.41;5055543;28;20041;-63
2022/01/23 11:34:21;;;;;;;48.78;30.80;;;;;;;11.05;64.02;103545.56;5056047;28;20041;-63
2022/01/23 11:36:47;;;;;;;;;;;;;;;11.12;64.14;103537.28;5055896;28;20061;-63
2022/01/23 11:39:31;;;;;;;49.53;31.15;;;;;;;11.26;64.20;103538.69;5055269;28;19927;-63
2022/01/23 11:56:32;;;;;;;43.55;28.02;;;;;;;11.46;63.64;103539.81;5033628;28;20052;-63
2022/01/23 11:59:28;;;;;;;46.47;29.00;;;;;;;11.51;63.65;103528.91;5033380;28;20052;-63
2022/01/23 12:02:25;;;;;;;48.75;28.75;;;;;;;11.56;63.59;103531.44;5033759;28;20048;-64
2022/01/23 12:05:12;;;;;;;;;;;;;;;11.58;63.50;103529.59;5035182;28;20041;-63
2022/01/23 12:07:41;;;;;;;45.92;27.15;;;;;;;11.62;63.50;103523.19;5034401;28;19975;-63
2022/01/23 12:10:23;;;;;;;45.28;28.02;;;;;;;11.61;63.38;103522.28;5033080;28;20053;-63
2022/01/23 12:13:33;;;;;;;42.85;26.75;;;;;;;11.60;63.39;103523.22;5034979;28;20041;-63
2022/01/23 12:18:48;;;;;;;;;;;;;;;11.59;63.22;103509.81;5050507;28;20052;-63
2022/01/23 12:21:29;;;;;;;44.95;25.52;;;;;;;11.62;63.24;103509.72;5053933;28;19927;-63
2022/01/23 12:24:04;;;;;;;42.97;25.17;;;;;;;11.61;63.46;103510.66;5051681;28;20513;-63
2022/01/23 12:26:31;;;;;;;42.03;25.63;;;;;;;11.66;63.28;103512.25;5045059;28;20053;-63
2022/01/23 12:29:11;;;;;;;43.42;25.63;;;;;;;11.70;63.27;103507.66;5048103;28;20116;-63
2022/01/23 12:32:19;;;;;;;41.78;25.40;;;;;;;11.75;63.38;103506.56;5048280;28;20069;-63
2022/01/23 12:34:51;;;;;;;41.67;25.23;;;;;;;11.81;63.16;103510.91;5038125;28;20068;-63
2022/01/23 12:37:18;;;;;;;42.42;24.20;;;;;;;11.85;63.34;103498.22;5053751;28;20136;-63
2022/01/23 12:40:22;;;;;;;41.58;23.95;;;;;;;11.87;63.04;103490.94;5050667;28;20040;-63
2022/01/23 12:43:17;;;;;;;42.47;25.08;;;;;;;11.87;63.04;103483.75;5047501;28;20459;-63
2022/01/23 12:45:49;;;;;;;37.50;21.40;;;;;;;11.87;62.80;103488.25;5045082;28;20087;-63
2022/01/23 12:48:24;;;;;;;36.65;23.33;;;;;;;11.86;62.73;103483.81;5034443;28;20034;-63
2022/01/23 12:50:58;;;;;;;37.72;22.88;;;;;;;11.88;62.79;103485.50;5053022;28;20510;-63
2022/01/23 12:53:47;;;;;;;36.50;23.10;;;;;;;11.90;62.92;103481.00;5053468;28;20372;-63
2022/01/23 12:56:20;;;;;;;39.20;22.02;;;;;;;11.92;62.46;103491.72;5049892;28;20094;-63
2022/01/23 12:59:08;;;;;;;40.65;20.98;;;;;;;11.88;62.31;103490.03;5035769;28;20045;-63
2022/01/23 13:01:40;;;;;;;38.95;22.75;;;;;;;11.89;62.42;103489.09;5050588;28;20114;-63
2022/01/23 13:04:09;;;;;;;35.80;22.35;;;;;;;11.89;62.61;103481.91;5053477;28;20245;-63
2022/01/23 13:06:50;;;;;;;32.28;21.83;;;;;;;11.92;62.51;103471.03;5048701;28;20418;-63
2022/01/23 13:12:18;;;;;;;37.95;22.42;;;;;;;11.94;62.43;103468.28;5051824;28;20081;-63
2022/01/23 13:17:56;;;;;;;36.97;22.02;;;;;;;11.91;62.06;103480.06;5047027;28;20037;-64
2022/01/23 13:31:54;;;;;;;31.80;20.30;;;;;;;11.74;62.28;103472.50;5051328;28;20041;-63
2022/01/23 13:34:31;;;;;;;30.30;18.52;;;;;;;11.80;62.41;103468.75;5038871;28;20099;-63
2022/01/23 13:37:06;;;;;;;32.15;20.50;;;;;;;11.81;62.24;103473.19;5050560;28;20491;-62
2022/01/23 13:39:42;;;;;;;32.05;19.58;;;;;;;11.83;62.05;103467.75;5051780;28;20136;-63
2022/01/23 13:59:37;;;;;;;37.42;22.08;;;;;;;11.81;61.99;103457.03;5032108;28;20053;-64
2022/01/23 14:02:18;;;;;;;33.05;19.88;;;;;;;11.82;61.94;103458.81;5032414;28;20128;-64
2022/01/23 14:05:03;;;;;;;38.13;22.70;;;;;;;11.81;61.57;103456.16;5040981;28;20117;-63
2022/01/23 14:07:32;;;;;;;31.90;20.77;;;;;;;11.79;61.71;103456.22;5051016;28;20127;-63
2022/01/23 14:10:19;;;;;;;38.83;20.92;;;;;;;11.73;61.43;103453.69;5051093;28;20061;-62
2022/01/23 14:12:47;;;;;;;36.60;22.42;;;;;;;11.72;61.60;103452.81;5049260;28;20465;-62
2022/01/23 14:15:35;;;;;;;35.20;22.38;;;;;;;11.72;61.30;103451.94;5051700;28;20080;-62
2022/01/23 14:18:06;;;;;;;30.42;19.85;;;;;;;11.72;61.61;103446.56;5051210;28;20124;-63
2022/01/23 14:20:45;;;;;;;33.35;21.30;;;;;;;11.72;61.47;103449.25;5051956;28;20128;-63
2022/01/23 14:23:18;;;;;;;32.60;21.50;;;;;;;11.71;61.35;103450.19;5038009;28;20549;-63
2022/01/23 14:25:53;;;;;;;32.55;21.08;;;;;;;11.70;61.34;103449.31;5042420;28;20077;-64
2022/01/23 14:28:23;;;;;;;35.10;20.83;;;;;;;11.67;61.47;103448.53;5049848;28;20049;-63
2022/01/23 14:30:54;;;;;;;32.47;20.73;;;;;;;11.66;61.62;103447.66;5051153;28;20112;-63
2022/01/23 14:33:26;;;;;;;37.25;22.25;;;;;;;11.66;61.42;103452.16;5051508;28;20051;-63
2022/01/23 14:36:20;;;;;;;36.67;21.67;;;;;;;11.64;61.34;103456.72;5050333;28;20045;-63
2022/01/23 14:38:55;;;;;;;37.30;21.83;;;;;;;11.61;61.36;103456.81;5053494;28;20133;-62
2022/01/23 14:41:31;;;;;;;34.33;22.13;;;;;;;11.60;61.38;103466.69;5057838;28;20133;-63
2022/01/23 14:43:58;;;;;;;35.70;21.85;;;;;;;11.59;61.58;103464.06;5058329;28;20052;-63
2022/01/23 14:46:25;;;;;;;37.47;23.15;;;;;;;11.59;61.57;103461.38;5058058;28;20392;-62
2022/01/23 14:48:59;;;;;;;35.30;21.90;;;;;;;11.58;61.25;103462.31;5057741;28;20049;-62
2022/01/23 14:51:27;;;;;;;33.00;21.25;;;;;;;11.57;61.32;103460.53;5058110;28;20095;-62
2022/01/23 14:53:54;;;;;;;34.60;21.08;;;;;;;11.53;61.56;103462.47;5057838;28;20476;-63
2022/01/23 14:56:21;;;;;;;32.58;20.35;;;;;;;11.52;61.45;103467.88;5057712;28;20095;-62
2022/01/23 14:58:49;;;;;;;34.78;21.63;;;;;;;11.49;61.40;103466.19;5057978;28;20107;-62
2022/01/23 15:01:17;;;;;;;36.65;21.55;;;;;;;11.46;61.35;103464.47;5057435;28;20051;-62
2022/01/23 15:03:52;;;;;;;32.22;20.90;;;;;;;11.44;61.54;103471.72;5058013;28;20055;-63
2022/01/23 15:06:28;;;;;;;35.88;21.83;;;;;;;11.48;61.44;103475.19;5057701;28;20226;-62
2022/01/23 15:08:55;;;;;;;33.67;21.65;;;;;;;11.50;61.44;103473.31;5056432;28;20047;-63
2022/01/23 15:11:21;;;;;;;34.03;20.80;;;;;;;11.53;61.49;103475.03;5057580;28;20049;-63
2022/01/23 15:13:49;;;;;;;35.33;21.90;;;;;;;11.55;61.35;103465.09;5057250;28;20045;-63
2022/01/23 15:16:16;;;;;;;36.55;23.02;;;;;;;11.55;61.38;103483.94;5037594;28;20052;-63
2022/01/23 15:18:43;;;;;;;35.28;23.40;;;;;;;11.54;61.52;103474.97;5037632;28;20096;-62
2022/01/23 15:21:09;;;;;;;39.42;24.05;;;;;;;11.54;61.47;103482.19;5048607;28;20136;-63
2022/01/23 15:23:41;;;;;;;36.17;23.60;;;;;;;11.50;61.61;103475.13;5057877;28;20051;-62